Pagina principale
METAR-TAF:

METAR-TAF

Aeroporti :

Aeroporto di Grosseto

Grosseto, Italia

latitudine: 42-45N, longitudine: 011-04E, altezza: 5 m

Osservazione

Il bollettino è stato emesso 27 minuti fa, alle 14:55 UTC
Vento 5 kt da sud/sud-ovest
Temperature 22°C
Umidità 65%
Pressione 1001 hPa
Visibilità 10 km o più
Nubi sparse ad un'altezza di 3000 ft

METAR: LIRS 271455Z 20005KT 9999 SCT030 22/15 Q1001 RMK BKN SCT070 VIS MIN 9999 WIND THR03 21006KT WIND THR21 31003KT BLU

Ora: 17:22 (15:22 UTC)

Previsione

Il bollettino è stato emesso 1 ora e 22 minuti fa, alle 14:00 UTC
Previsione valida dal 27 alle 15 UTC al 27 alle 24 UTC
Vento 13 kt da ovest
Visibilità 10 km o più
Nubi sparse ad un'altezza di 2500 ft

TAF: LIRS 271400Z 2715/2724 28013KT 9999 SCT025

Osservazioni e previsioni meteorologiche di più di 4000 aeroporti (messaggi METAR e TAF).

Le stazioni disponibili sono rappresentate dai dischi gialli e rossi sulla carta.

Puntare il mouse per vedere il nome della stazione.

Clicca sopra per visualizzare le osservazioni e previsioni meteorologiche.

Per cambiare la mappa : fare clic sui pulsanti verdi con una croce nera per ingrandire, il pulsante verde con un trattino per diminuire, o sulla freccia verde per le mappe adiacenti.


METAR-TAF: